Time;durP1;ratioP1;P1;durP2;ratioP2;P2;SDS_P1;SDS_P2;PMS_P1;PMS_P2;Temp;Humidity;BMP_temperature;BMP_pressure;BME280_temperature;BME280_humidity;BME280_pressure;Samples;Min_cycle;Max_cycle;Signal;HPM_P1;HPM_P2
2023/09/23 00:00:40;;;;;;;2.40;1.63;;;11.10;99.90;;;;;;5097605;28;20260;-72
2023/09/23 00:03:08;;;;;;;2.43;1.50;;;11.10;99.90;;;;;;5096925;28;20536;-72
2023/09/23 00:05:36;;;;;;;3.43;1.63;;;11.10;99.90;;;;;;5094831;28;20200;-72
2023/09/23 00:08:05;;;;;;;1.77;1.40;;;11.00;99.90;;;;;;5094793;28;20196;-72
2023/09/23 00:10:32;;;;;;;3.33;1.40;;;11.00;99.90;;;;;;5094843;28;20255;-72
2023/09/23 00:13:00;;;;;;;1.80;1.40;;;11.00;99.90;;;;;;5093824;28;20231;-72
2023/09/23 00:15:26;;;;;;;1.67;1.43;;;11.10;99.90;;;;;;5094870;28;20590;-72
2023/09/23 00:17:55;;;;;;;2.53;1.70;;;11.10;99.90;;;;;;5094595;28;20192;-72
2023/09/23 00:20:23;;;;;;;2.60;1.67;;;11.10;99.90;;;;;;5094750;28;20197;-72
2023/09/23 00:22:54;;;;;;;1.57;1.47;;;11.10;99.90;;;;;;5094597;28;20246;-72
2023/09/23 00:25:23;;;;;;;1.70;1.30;;;11.10;99.90;;;;;;5094622;28;20193;-72
2023/09/23 00:27:50;;;;;;;1.57;1.27;;;11.10;99.90;;;;;;5094409;28;20207;-72
2023/09/23 00:30:17;;;;;;;3.47;1.43;;;11.10;99.90;;;;;;5094260;28;20204;-72
2023/09/23 00:32:44;;;;;;;1.57;1.40;;;11.10;99.90;;;;;;5094202;28;20683;-72
2023/09/23 00:35:11;;;;;;;2.47;1.60;;;11.10;99.90;;;;;;5094437;28;20250;-73
2023/09/23 00:37:40;;;;;;;3.57;1.67;;;11.10;99.90;;;;;;5094126;28;20236;-72
2023/09/23 00:40:13;;;;;;;1.83;1.40;;;11.10;99.90;;;;;;5094179;28;20192;-72
2023/09/23 00:42:40;;;;;;;1.70;1.33;;;11.20;99.90;;;;;;5094023;28;20709;-72
2023/09/23 00:45:07;;;;;;;2.70;1.43;;;11.10;99.90;;;;;;5094304;28;20196;-72
2023/09/23 00:47:34;;;;;;;1.90;1.43;;;11.10;99.90;;;;;;5094478;28;20279;-72
2023/09/23 00:50:22;;;;;;;1.97;1.37;;;11.00;99.90;;;;;;5094062;28;20670;-71
2023/09/23 00:52:52;;;;;;;2.07;1.50;;;11.00;99.90;;;;;;5093730;28;20408;-72
2023/09/23 00:55:19;;;;;;;2.30;1.50;;;10.90;99.90;;;;;;5093863;28;20601;-71
2023/09/23 00:57:47;;;;;;;2.80;1.40;;;10.90;99.90;;;;;;5093616;28;20545;-71
2023/09/23 01:00:15;;;;;;;2.73;1.30;;;10.90;99.90;;;;;;5093923;28;20226;-72
2023/09/23 01:02:42;;;;;;;4.10;1.33;;;10.80;99.90;;;;;;5093400;28;20204;-71
2023/09/23 01:05:09;;;;;;;1.50;1.40;;;10.80;99.90;;;;;;5093654;28;20586;-72
2023/09/23 01:07:35;;;;;;;2.27;1.60;;;10.70;99.90;;;;;;5093475;28;20242;-72
2023/09/23 01:10:04;;;;;;;2.50;1.57;;;10.70;99.90;;;;;;5093807;28;20211;-71
2023/09/23 01:12:30;;;;;;;1.80;1.40;;;10.70;99.90;;;;;;5093523;28;20356;-72
2023/09/23 01:15:05;;;;;;;1.53;1.40;;;10.70;99.90;;;;;;5093929;28;20197;-72
2023/09/23 01:17:32;;;;;;;1.83;1.50;;;10.60;99.90;;;;;;5093583;28;20239;-72
2023/09/23 01:20:00;;;;;;;1.90;1.67;;;10.60;99.90;;;;;;5093449;28;20208;-71
2023/09/23 01:22:29;;;;;;;2.30;1.40;;;10.60;99.90;;;;;;5093321;28;20204;-72
2023/09/23 01:24:56;;;;;;;1.60;1.20;;;10.60;99.90;;;;;;5093335;28;20193;-71
2023/09/23 01:27:24;;;;;;;1.97;1.40;;;10.60;99.90;;;;;;5093408;28;20250;-72
2023/09/23 01:29:53;;;;;;;2.17;1.57;;;10.50;99.90;;;;;;5093342;28;20204;-72
2023/09/23 01:32:31;;;;;;;2.20;1.60;;;10.50;99.90;;;;;;5093188;28;20274;-72
2023/09/23 01:34:57;;;;;;;1.60;1.50;;;10.50;99.90;;;;;;5093212;28;20238;-71
2023/09/23 01:37:24;;;;;;;1.63;1.43;;;10.50;99.90;;;;;;5093043;28;20224;-71
2023/09/23 01:39:52;;;;;;;3.20;1.70;;;10.40;99.90;;;;;;5093249;28;20246;-72
2023/09/23 01:42:19;;;;;;;2.63;1.80;;;10.40;99.90;;;;;;5093170;28;20204;-72
2023/09/23 01:44:46;;;;;;;1.63;1.53;;;10.40;99.90;;;;;;5093094;28;20196;-72
2023/09/23 01:47:12;;;;;;;1.90;1.80;;;10.50;99.90;;;;;;5092795;28;20655;-72
2023/09/23 01:49:39;;;;;;;2.00;1.60;;;10.50;99.90;;;;;;5092984;28;20732;-72
2023/09/23 01:52:06;;;;;;;4.10;1.80;;;10.50;99.90;;;;;;5093082;28;20262;-71
2023/09/23 01:54:32;;;;;;;3.03;1.70;;;10.50;99.90;;;;;;5092949;28;20200;-72
2023/09/23 01:57:01;;;;;;;2.60;1.80;;;10.60;99.90;;;;;;5092829;28;20233;-72
2023/09/23 01:59:28;;;;;;;2.43;2.10;;;10.70;99.90;;;;;;5092621;28;20742;-71
2023/09/23 02:01:55;;;;;;;4.40;1.63;;;10.70;99.90;;;;;;5092782;28;20208;-72
2023/09/23 02:04:21;;;;;;;2.70;1.90;;;10.80;99.90;;;;;;5092903;28;20208;-71
2023/09/23 02:06:49;;;;;;;2.10;1.90;;;10.80;99.90;;;;;;5092649;28;20651;-72
2023/09/23 02:09:15;;;;;;;2.70;1.97;;;10.80;99.90;;;;;;5092880;28;20196;-71
2023/09/23 02:11:42;;;;;;;3.43;1.80;;;10.80;99.90;;;;;;5092770;28;20329;-71
2023/09/23 02:14:10;;;;;;;2.23;1.53;;;10.80;99.90;;;;;;5092580;28;20285;-71
2023/09/23 02:16:36;;;;;;;1.70;1.60;;;10.90;99.90;;;;;;5092436;28;20651;-71
2023/09/23 02:19:03;;;;;;;1.60;1.40;;;10.90;99.90;;;;;;5092812;28;20242;-71
2023/09/23 02:21:30;;;;;;;1.90;1.70;;;10.90;99.90;;;;;;5092464;28;20632;-71
2023/09/23 02:23:57;;;;;;;2.43;1.53;;;10.80;99.90;;;;;;5092704;28;20199;-71
2023/09/23 02:26:24;;;;;;;2.43;1.60;;;10.80;99.90;;;;;;5092361;28;20248;-71
2023/09/23 02:28:50;;;;;;;3.87;1.70;;;10.70;99.90;;;;;;5092483;28;20643;-70
2023/09/23 02:31:19;;;;;;;1.60;1.50;;;10.80;99.90;;;;;;5092493;28;20253;-70
2023/09/23 02:33:46;;;;;;;3.13;1.27;;;10.70;99.90;;;;;;5092636;28;20224;-70
2023/09/23 02:36:14;;;;;;;2.03;1.47;;;10.70;99.90;;;;;;5095081;28;20775;-70
2023/09/23 02:38:40;;;;;;;4.13;1.60;;;10.70;99.90;;;;;;5096481;28;20670;-70
2023/09/23 02:41:07;;;;;;;4.70;1.30;;;10.60;99.90;;;;;;5096486;28;20203;-70
2023/09/23 02:43:34;;;;;;;1.60;1.40;;;10.60;99.90;;;;;;5096405;28;20200;-70
2023/09/23 02:46:01;;;;;;;4.47;1.47;;;10.60;99.90;;;;;;5096481;28;20200;-70
2023/09/23 02:48:29;;;;;;;1.80;1.30;;;10.50;99.90;;;;;;5096503;28;20255;-70
2023/09/23 02:50:58;;;;;;;1.80;1.50;;;10.60;99.90;;;;;;5096355;28;20276;-70
2023/09/23 02:53:25;;;;;;;3.10;1.50;;;10.60;99.90;;;;;;5096060;28;20588;-71
2023/09/23 02:56:05;;;;;;;1.67;1.53;;;10.50;99.90;;;;;;5096045;28;20204;-70
2023/09/23 02:58:32;;;;;;;2.07;1.40;;;10.50;99.90;;;;;;5096398;28;20196;-70
2023/09/23 03:01:01;;;;;;;2.70;1.53;;;10.40;99.90;;;;;;5096219;28;20237;-70
2023/09/23 03:03:30;;;;;;;2.10;1.67;;;10.40;99.90;;;;;;5096083;28;20200;-70
2023/09/23 03:05:57;;;;;;;2.43;1.80;;;10.40;99.90;;;;;;5096014;28;20237;-70
2023/09/23 03:08:24;;;;;;;3.10;1.80;;;10.40;99.90;;;;;;5095926;28;20197;-70
2023/09/23 03:10:52;;;;;;;1.77;1.40;;;10.30;99.90;;;;;;5095863;28;20651;-70
2023/09/23 03:13:19;;;;;;;3.07;1.70;;;10.30;99.90;;;;;;5095953;28;20220;-70
2023/09/23 03:15:50;;;;;;;2.93;1.80;;;10.30;99.90;;;;;;5095895;28;20196;-70
2023/09/23 03:18:27;;;;;;;3.73;1.63;;;10.20;99.90;;;;;;5095675;28;20673;-70
2023/09/23 03:20:56;;;;;;;2.80;2.00;;;10.20;99.90;;;;;;5095609;28;20240;-70
2023/09/23 03:23:23;;;;;;;2.73;2.10;;;10.20;99.90;;;;;;5095907;28;20212;-71
2023/09/23 03:25:51;;;;;;;2.13;1.70;;;10.20;99.90;;;;;;5095651;28;20249;-70
2023/09/23 03:28:18;;;;;;;2.40;2.20;;;10.20;99.90;;;;;;5095609;28;20199;-70
2023/09/23 03:30:47;;;;;;;2.17;1.87;;;10.10;99.90;;;;;;5097927;28;20249;-70
2023/09/23 03:33:14;;;;;;;2.73;1.90;;;10.10;99.90;;;;;;5095804;28;20302;-70
2023/09/23 03:35:41;;;;;;;4.30;2.27;;;10.10;99.90;;;;;;5095360;28;20655;-70
2023/09/23 03:38:10;;;;;;;3.13;2.60;;;10.00;99.90;;;;;;5095558;28;20224;-70
2023/09/23 03:40:38;;;;;;;4.60;2.30;;;10.00;99.90;;;;;;5095355;28;20667;-70
2023/09/23 03:43:05;;;;;;;2.20;2.00;;;10.00;99.90;;;;;;5095411;28;20196;-70
2023/09/23 03:45:33;;;;;;;3.60;2.10;;;9.90;99.90;;;;;;5095247;28;20196;-70
2023/09/23 03:48:00;;;;;;;2.30;2.10;;;9.90;99.90;;;;;;5093979;28;20200;-70
2023/09/23 03:50:27;;;;;;;2.57;2.30;;;9.80;99.90;;;;;;5095388;28;20200;-70
2023/09/23 03:52:54;;;;;;;3.90;2.50;;;9.70;99.90;;;;;;5095079;28;20192;-70
2023/09/23 03:55:22;;;;;;;3.67;2.40;;;9.70;99.90;;;;;;5095154;28;20212;-70
2023/09/23 03:57:49;;;;;;;3.07;2.53;;;9.60;99.90;;;;;;5095041;28;20200;-70
2023/09/23 04:00:16;;;;;;;3.27;2.37;;;9.60;99.90;;;;;;5094989;28;20268;-70
2023/09/23 04:02:44;;;;;;;2.93;2.40;;;9.60;99.90;;;;;;5094784;28;20249;-70
2023/09/23 04:05:11;;;;;;;2.67;2.47;;;9.50;99.90;;;;;;5094985;28;20205;-70
2023/09/23 04:07:40;;;;;;;3.60;2.50;;;9.40;99.90;;;;;;5094922;28;20196;-70
2023/09/23 04:10:08;;;;;;;4.80;2.77;;;9.40;99.90;;;;;;5094644;28;20651;-70
2023/09/23 04:12:37;;;;;;;5.63;2.90;;;9.40;99.90;;;;;;5094742;28;20247;-70
2023/09/23 04:15:05;;;;;;;3.03;2.83;;;9.40;99.90;;;;;;5094459;28;20234;-70
2023/09/23 04:17:31;;;;;;;3.30;3.00;;;9.50;99.90;;;;;;5094803;28;20269;-70
2023/09/23 04:19:58;;;;;;;3.93;3.40;;;9.50;99.90;;;;;;5094715;28;20192;-70
2023/09/23 04:22:25;;;;;;;3.33;3.03;;;9.50;99.90;;;;;;5094531;28;20199;-70
2023/09/23 04:24:51;;;;;;;3.67;3.07;;;9.50;99.90;;;;;;5094598;28;20254;-70
2023/09/23 04:27:19;;;;;;;3.90;3.03;;;9.50;99.90;;;;;;5094321;28;20651;-70
2023/09/23 04:29:47;;;;;;;4.37;3.73;;;9.50;99.90;;;;;;5094496;28;20576;-70
2023/09/23 04:32:14;;;;;;;3.50;3.20;;;9.50;99.90;;;;;;5094621;28;20610;-70
2023/09/23 04:34:41;;;;;;;4.90;3.27;;;9.40;99.90;;;;;;5094143;28;20625;-70
2023/09/23 04:37:08;;;;;;;4.70;3.50;;;9.40;99.90;;;;;;5094167;28;20224;-71
2023/09/23 04:39:34;;;;;;;4.63;3.53;;;9.40;99.90;;;;;;5094248;28;20230;-70
2023/09/23 04:42:03;;;;;;;4.20;3.73;;;9.40;99.90;;;;;;5094082;28;20196;-70
2023/09/23 04:44:30;;;;;;;5.20;4.00;;;9.40;99.90;;;;;;5094219;28;20196;-70
2023/09/23 04:46:58;;;;;;;6.40;4.17;;;9.40;99.90;;;;;;5094238;28;20203;-70
2023/09/23 04:49:25;;;;;;;4.57;4.17;;;9.30;99.90;;;;;;5078319;28;20251;-70
2023/09/23 04:51:51;;;;;;;3.60;3.30;;;9.20;99.90;;;;;;5073566;28;20201;-70
2023/09/23 04:54:18;;;;;;;5.03;3.80;;;9.20;99.90;;;;;;5073462;28;20683;-70
2023/09/23 04:56:45;;;;;;;4.53;4.13;;;9.20;99.90;;;;;;5073584;28;20559;-70
2023/09/23 04:59:12;;;;;;;4.53;4.13;;;9.20;99.90;;;;;;5073441;28;20197;-70
2023/09/23 05:01:39;;;;;;;5.30;4.90;;;9.10;99.90;;;;;;5073582;28;20229;-70
2023/09/23 05:04:12;;;;;;;6.33;4.80;;;9.10;99.90;;;;;;5073603;28;20192;-70
2023/09/23 05:06:39;;;;;;;4.87;4.37;;;9.10;99.90;;;;;;5073281;28;20513;-70
2023/09/23 05:09:07;;;;;;;5.37;4.87;;;9.10;99.90;;;;;;5073280;28;20729;-70
2023/09/23 05:11:35;;;;;;;5.80;5.20;;;9.10;99.90;;;;;;5073334;28;20240;-70
2023/09/23 05:14:04;;;;;;;5.17;4.67;;;9.20;99.90;;;;;;5073146;28;20221;-70
2023/09/23 05:16:31;;;;;;;5.93;5.43;;;9.10;99.90;;;;;;5073392;28;20227;-70
2023/09/23 05:18:57;;;;;;;5.67;5.17;;;9.10;99.90;;;;;;5073330;28;20262;-70
2023/09/23 05:21:25;;;;;;;5.87;5.27;;;9.00;99.90;;;;;;5073152;28;20204;-70
2023/09/23 05:23:52;;;;;;;6.40;5.80;;;9.00;99.90;;;;;;5072993;28;20247;-70
2023/09/23 05:26:19;;;;;;;6.93;6.33;;;9.00;99.90;;;;;;5073198;28;20200;-70
2023/09/23 05:28:46;;;;;;;6.87;6.27;;;9.10;99.90;;;;;;5073386;28;20201;-70
2023/09/23 05:31:14;;;;;;;7.40;6.70;;;9.10;99.90;;;;;;5073075;28;20283;-70
2023/09/23 05:33:41;;;;;;;9.33;6.70;;;9.10;99.90;;;;;;5072891;28;20220;-70
2023/09/23 05:36:08;;;;;;;7.23;6.53;;;9.20;99.90;;;;;;5072621;28;20204;-70
2023/09/23 05:38:36;;;;;;;8.13;6.00;;;9.20;99.90;;;;;;5072839;28;20649;-70
2023/09/23 05:41:03;;;;;;;6.67;6.07;;;9.30;99.90;;;;;;5072946;28;20197;-70
2023/09/23 05:43:30;;;;;;;7.20;6.50;;;9.40;99.90;;;;;;5072870;28;20201;-70
2023/09/23 05:45:56;;;;;;;8.30;6.30;;;9.40;99.90;;;;;;5072657;28;20723;-69
2023/09/23 05:48:24;;;;;;;7.10;6.20;;;9.40;99.90;;;;;;5072631;28;20205;-70
2023/09/23 05:50:52;;;;;;;6.20;5.70;;;9.50;99.90;;;;;;5072732;28;20196;-70
2023/09/23 05:53:18;;;;;;;6.90;6.20;;;9.50;99.90;;;;;;5072595;28;20236;-71
2023/09/23 05:55:47;;;;;;;7.17;5.60;;;9.50;99.90;;;;;;5072725;28;20220;-71
2023/09/23 05:58:13;;;;;;;7.37;5.90;;;9.50;99.90;;;;;;5072716;28;20208;-70
2023/09/23 06:00:40;;;;;;;7.17;6.47;;;9.60;99.90;;;;;;5072650;28;20279;-70
2023/09/23 06:03:07;;;;;;;6.03;5.53;;;9.60;99.90;;;;;;5072574;28;20201;-70
2023/09/23 06:05:33;;;;;;;7.80;5.77;;;9.60;99.90;;;;;;5072045;28;20204;-71
2023/09/23 06:08:00;;;;;;;6.33;5.03;;;9.60;99.90;;;;;;5072611;28;20204;-71
2023/09/23 06:10:26;;;;;;;6.10;4.97;;;9.70;99.90;;;;;;5071895;28;20197;-71
2023/09/23 06:12:55;;;;;;;5.00;4.50;;;9.70;99.90;;;;;;5072566;28;20201;-71
2023/09/23 06:15:22;;;;;;;6.00;4.37;;;9.80;99.90;;;;;;5072401;28;20224;-71
2023/09/23 06:17:49;;;;;;;6.27;4.60;;;9.80;99.90;;;;;;5072340;28;20197;-72
2023/09/23 06:20:16;;;;;;;5.43;4.20;;;10.00;99.90;;;;;;5072154;28;20193;-70
2023/09/23 06:22:42;;;;;;;7.63;4.17;;;10.10;99.90;;;;;;5072372;28;20196;-69
2023/09/23 06:25:10;;;;;;;4.73;3.90;;;10.20;99.90;;;;;;5072486;28;20200;-70
2023/09/23 06:27:37;;;;;;;6.20;4.10;;;10.30;99.90;;;;;;5072382;28;20197;-70
2023/09/23 06:30:06;;;;;;;4.10;3.70;;;10.30;99.90;;;;;;5072273;28;20193;-70
2023/09/23 06:32:33;;;;;;;5.07;3.73;;;10.40;99.90;;;;;;5072435;28;20201;-70
2023/09/23 06:34:59;;;;;;;6.17;3.20;;;10.40;99.90;;;;;;5072343;28;20228;-70
2023/09/23 06:37:26;;;;;;;4.17;3.07;;;10.50;99.90;;;;;;5072074;28;20354;-70
2023/09/23 06:39:53;;;;;;;3.83;3.43;;;10.60;99.90;;;;;;5072321;28;20227;-70
2023/09/23 06:42:19;;;;;;;5.10;2.93;;;10.60;99.90;;;;;;5072199;28;20197;-70
2023/09/23 06:44:46;;;;;;;2.70;2.50;;;10.60;99.90;;;;;;5072183;28;20254;-70
2023/09/23 06:47:14;;;;;;;3.03;2.83;;;10.60;99.90;;;;;;5072129;28;20239;-70
2023/09/23 06:49:41;;;;;;;5.00;3.10;;;10.60;99.90;;;;;;5072308;28;20205;-70
2023/09/23 06:52:07;;;;;;;4.47;2.80;;;10.60;99.90;;;;;;5072283;28;20197;-70
2023/09/23 06:54:34;;;;;;;3.87;2.77;;;10.70;99.90;;;;;;5072062;28;20279;-70
2023/09/23 06:57:00;;;;;;;5.60;2.83;;;10.80;99.90;;;;;;5072067;28;20254;-70
2023/09/23 06:59:27;;;;;;;2.73;2.50;;;10.70;99.90;;;;;;5072067;28;20197;-70
2023/09/23 07:01:54;;;;;;;3.93;2.80;;;10.80;99.90;;;;;;5071914;28;20201;-70
2023/09/23 07:04:22;;;;;;;3.67;2.50;;;11.00;99.90;;;;;;5072214;28;20209;-69
2023/09/23 07:06:48;;;;;;;5.73;2.60;;;11.10;99.90;;;;;;5072058;28;20208;-69
2023/09/23 07:09:15;;;;;;;3.97;2.43;;;11.10;99.90;;;;;;5071896;28;20602;-69
2023/09/23 07:11:42;;;;;;;2.63;2.20;;;11.20;99.90;;;;;;5071892;28;20201;-69
2023/09/23 07:14:09;;;;;;;3.27;2.57;;;11.20;99.90;;;;;;5071929;28;20194;-70
2023/09/23 07:16:35;;;;;;;3.77;2.63;;;11.20;99.90;;;;;;5071811;28;20197;-70
2023/09/23 07:19:02;;;;;;;3.90;2.47;;;11.40;99.90;;;;;;5071796;28;20663;-70
2023/09/23 07:21:30;;;;;;;2.93;2.33;;;11.50;99.90;;;;;;5072798;28;20201;-70
2023/09/23 07:23:57;;;;;;;3.90;2.50;;;11.60;99.90;;;;;;5075558;28;20200;-70
2023/09/23 07:26:24;;;;;;;3.10;2.37;;;11.70;99.90;;;;;;5075509;28;20197;-70
2023/09/23 07:28:51;;;;;;;4.13;2.40;;;11.80;99.90;;;;;;5075472;28;20201;-71
2023/09/23 07:31:18;;;;;;;5.97;2.30;;;11.90;99.90;;;;;;5075098;28;20725;-70
2023/09/23 07:33:45;;;;;;;5.60;2.20;;;11.90;99.90;;;;;;5075584;28;20280;-71
2023/09/23 07:36:12;;;;;;;3.70;2.43;;;11.90;99.90;;;;;;5075045;28;20272;-70
2023/09/23 07:38:41;;;;;;;4.07;2.70;;;11.90;99.90;;;;;;5075122;28;20205;-70
2023/09/23 07:41:08;;;;;;;3.03;2.50;;;12.10;99.90;;;;;;5075026;28;20648;-70
2023/09/23 07:43:34;;;;;;;4.90;2.57;;;12.20;99.90;;;;;;5075062;28;20196;-70
2023/09/23 07:46:01;;;;;;;4.63;2.57;;;12.40;99.90;;;;;;5074915;28;20255;-71
2023/09/23 07:48:28;;;;;;;4.17;3.10;;;12.70;99.90;;;;;;5075369;28;20197;-73
2023/09/23 07:50:55;;;;;;;4.13;2.77;;;12.70;99.90;;;;;;5075011;28;20197;-70
2023/09/23 07:53:21;;;;;;;3.80;2.30;;;12.60;99.90;;;;;;5074835;28;20232;-70
2023/09/23 07:55:49;;;;;;;2.57;2.20;;;12.70;99.90;;;;;;5074766;28;20228;-70
2023/09/23 07:58:16;;;;;;;3.83;2.33;;;12.80;99.90;;;;;;5074624;28;20231;-69
2023/09/23 08:00:43;;;;;;;4.10;1.93;;;13.20;99.90;;;;;;5074895;28;20201;-70
2023/09/23 08:03:09;;;;;;;2.50;1.83;;;13.50;99.90;;;;;;5074712;28;20288;-69
2023/09/23 08:05:36;;;;;;;3.40;1.70;;;13.20;99.90;;;;;;5074810;28;20270;-69
2023/09/23 08:08:03;;;;;;;2.00;1.60;;;13.30;99.90;;;;;;5074701;28;20193;-69
2023/09/23 08:10:31;;;;;;;3.03;1.83;;;13.30;99.90;;;;;;5074453;28;20201;-69
2023/09/23 08:12:58;;;;;;;2.40;1.50;;;13.40;99.90;;;;;;5074433;28;20208;-70
2023/09/23 08:15:25;;;;;;;3.20;1.70;;;13.70;99.90;;;;;;5074570;28;20225;-69
2023/09/23 08:17:52;;;;;;;1.83;1.40;;;13.60;99.90;;;;;;5074261;28;20197;-69
2023/09/23 08:20:20;;;;;;;2.07;1.60;;;13.50;99.90;;;;;;5074408;28;20201;-70
2023/09/23 08:22:47;;;;;;;2.23;1.70;;;13.30;99.90;;;;;;5073997;28;20193;-69
2023/09/23 08:25:14;;;;;;;1.90;1.50;;;13.30;99.90;;;;;;5074043;28;20679;-70
2023/09/23 08:27:41;;;;;;;2.10;1.50;;;13.40;99.90;;;;;;5074082;28;20223;-69
2023/09/23 08:30:10;;;;;;;2.67;1.90;;;13.40;99.90;;;;;;5074309;28;20216;-70
2023/09/23 08:32:37;;;;;;;4.23;1.70;;;13.50;99.90;;;;;;5071063;28;20280;-69
2023/09/23 08:35:05;;;;;;;2.97;1.90;;;13.40;99.90;;;;;;5073762;28;20276;-68
2023/09/23 08:37:32;;;;;;;1.80;1.43;;;13.30;99.90;;;;;;5073536;28;20369;-67
2023/09/23 08:39:58;;;;;;;4.57;1.80;;;13.10;99.90;;;;;;5073823;28;20254;-67
2023/09/23 08:42:27;;;;;;;2.20;1.80;;;13.00;99.90;;;;;;5073711;28;20204;-68
2023/09/23 08:44:54;;;;;;;3.57;1.70;;;12.90;99.90;;;;;;5073791;28;20236;-69
2023/09/23 08:47:22;;;;;;;3.90;1.87;;;13.00;99.90;;;;;;5073645;28;20200;-69
2023/09/23 08:49:51;;;;;;;2.63;1.67;;;13.20;99.90;;;;;;5073483;28;20565;-69
2023/09/23 08:52:18;;;;;;;2.93;1.60;;;13.30;99.90;;;;;;5073546;28;20618;-69
2023/09/23 08:54:48;;;;;;;1.77;1.67;;;13.20;99.90;;;;;;5073883;28;20274;-69
2023/09/23 08:57:16;;;;;;;2.53;1.53;;;13.10;99.90;;;;;;5073756;28;20599;-69
2023/09/23 08:59:43;;;;;;;4.43;2.00;;;13.20;99.90;;;;;;5073945;28;20197;-69
2023/09/23 09:02:12;;;;;;;2.87;1.90;;;13.30;99.90;;;;;;5073863;28;20201;-69
2023/09/23 09:04:40;;;;;;;5.00;1.90;;;13.40;99.90;;;;;;5073997;28;20197;-69
2023/09/23 09:07:06;;;;;;;4.00;1.80;;;13.60;99.90;;;;;;5073852;28;20193;-70
2023/09/23 09:09:33;;;;;;;3.83;1.97;;;13.60;99.90;;;;;;5073608;28;20197;-69
2023/09/23 09:12:00;;;;;;;3.13;1.80;;;13.60;99.90;;;;;;5073605;28;20205;-70
2023/09/23 09:14:26;;;;;;;2.27;1.87;;;13.70;99.90;;;;;;5073450;28;20197;-70
2023/09/23 09:16:53;;;;;;;2.57;1.80;;;13.80;99.90;;;;;;5073035;28;20356;-68
2023/09/23 09:19:20;;;;;;;3.27;1.70;;;14.00;99.90;;;;;;5073263;28;20545;-68
2023/09/23 09:21:50;;;;;;;2.57;1.83;;;14.00;99.90;;;;;;5073069;28;20532;-69
2023/09/23 09:24:17;;;;;;;3.87;1.90;;;14.10;99.90;;;;;;5073212;28;20201;-69
2023/09/23 09:26:44;;;;;;;3.40;1.70;;;14.50;99.90;;;;;;5073031;28;20254;-69
2023/09/23 09:29:12;;;;;;;2.90;1.70;;;14.80;99.90;;;;;;5073078;28;20250;-69
2023/09/23 09:31:39;;;;;;;2.70;1.70;;;14.90;99.90;;;;;;5073100;28;20254;-70
2023/09/23 09:34:08;;;;;;;4.40;1.73;;;15.20;99.90;;;;;;5072988;28;20212;-69
2023/09/23 09:36:37;;;;;;;4.32;1.70;;;15.70;99.90;;;;;;5072720;28;20237;-69
2023/09/23 09:39:08;;;;;;;4.10;1.63;;;15.80;99.90;;;;;;5073124;28;20193;-70
2023/09/23 09:41:42;;;;;;;2.17;1.52;;;15.80;99.90;;;;;;5073151;28;20242;-69
2023/09/23 09:44:11;;;;;;;6.25;1.40;;;16.00;99.90;;;;;;5072632;28;20243;-69
2023/09/23 09:46:41;;;;;;;2.55;1.42;;;16.40;99.90;;;;;;5072532;28;20235;-69
2023/09/23 09:49:09;;;;;;;3.50;1.65;;;16.60;99.90;;;;;;5073160;28;20200;-69
2023/09/23 09:51:37;;;;;;;2.33;1.30;;;16.10;99.90;;;;;;5072937;28;20287;-69
2023/09/23 09:54:09;;;;;;;1.92;1.40;;;16.20;99.90;;;;;;5073170;28;20205;-69
2023/09/23 09:56:36;;;;;;;1.90;1.38;;;16.20;99.90;;;;;;5072868;28;20312;-69
2023/09/23 09:59:03;;;;;;;2.92;1.42;;;16.30;99.90;;;;;;5072847;28;20676;-69
2023/09/23 10:01:30;;;;;;;2.55;1.60;;;15.80;99.90;;;;;;5072979;28;20196;-70
2023/09/23 10:03:57;;;;;;;2.40;1.40;;;15.90;99.90;;;;;;5072801;28;20259;-70
2023/09/23 10:06:23;;;;;;;3.65;1.70;;;15.50;99.90;;;;;;5072907;28;20201;-70
2023/09/23 10:08:51;;;;;;;2.35;1.80;;;15.10;99.90;;;;;;5073018;28;20261;-68
2023/09/23 10:11:31;;;;;;;2.75;1.40;;;15.10;99.90;;;;;;5072705;28;20192;-69
2023/09/23 10:13:57;;;;;;;2.30;1.30;;;15.90;99.90;;;;;;5072728;28;20228;-69
2023/09/23 10:16:28;;;;;;;2.25;1.20;;;16.90;99.90;;;;;;5072630;28;20634;-69
2023/09/23 10:18:56;;;;;;;3.40;1.30;;;17.60;99.90;;;;;;5072714;28;20208;-69
2023/09/23 10:21:24;;;;;;;2.17;1.30;;;17.60;99.90;;;;;;5072921;28;20204;-69
2023/09/23 10:23:52;;;;;;;3.88;1.50;;;17.80;99.90;;;;;;5072600;28;20675;-69
2023/09/23 10:26:23;;;;;;;3.33;1.40;;;17.50;99.90;;;;;;5072790;28;20237;-69
2023/09/23 10:29:00;;;;;;;3.20;1.65;;;17.30;99.90;;;;;;5072769;28;20606;-69
2023/09/23 10:31:27;;;;;;;3.40;1.75;;;17.90;99.70;;;;;;5072685;28;20192;-70
2023/09/23 10:33:55;;;;;;;3.53;1.50;;;17.50;99.90;;;;;;5072893;28;20204;-70
2023/09/23 10:36:22;;;;;;;2.45;1.67;;;18.40;99.20;;;;;;5072558;28;20324;-70
2023/09/23 10:38:50;;;;;;;3.13;1.40;;;18.20;98.80;;;;;;5071954;28;20201;-71
2023/09/23 10:41:17;;;;;;;2.63;1.58;;;19.10;98.20;;;;;;5072575;28;20193;-71
2023/09/23 10:43:53;;;;;;;2.72;1.50;;;18.70;97.00;;;;;;5072527;28;20200;-69
2023/09/23 10:46:20;;;;;;;1.60;1.20;;;18.40;98.30;;;;;;5072357;28;20287;-68
2023/09/23 10:48:47;;;;;;;4.25;1.70;;;18.10;97.80;;;;;;5072234;28;20201;-69
2023/09/23 10:51:14;;;;;;;2.60;1.50;;;18.00;98.10;;;;;;5072444;28;20201;-68
2023/09/23 10:53:42;;;;;;;5.15;1.52;;;17.80;98.80;;;;;;5072439;28;20251;-68
2023/09/23 10:56:10;;;;;;;3.55;1.30;;;16.80;98.30;;;;;;5072989;28;20695;-68
2023/09/23 10:58:38;;;;;;;2.75;1.40;;;16.70;98.60;;;;;;5076049;28;20205;-68
2023/09/23 11:01:07;;;;;;;2.88;1.60;;;17.50;97.50;;;;;;5076080;28;20552;-68
2023/09/23 11:03:41;;;;;;;3.20;1.42;;;18.90;96.70;;;;;;5076145;28;20197;-69
2023/09/23 11:06:08;;;;;;;2.70;1.50;;;19.30;94.30;;;;;;5076234;28;20197;-69
2023/09/23 11:08:36;;;;;;;4.00;1.67;;;19.00;94.10;;;;;;5075901;28;20300;-69
2023/09/23 11:11:03;;;;;;;2.30;1.73;;;19.10;93.70;;;;;;5075986;28;20283;-69
2023/09/23 11:13:33;;;;;;;2.72;1.50;;;20.40;92.80;;;;;;5075836;28;20309;-68
2023/09/23 11:15:59;;;;;;;2.08;1.40;;;19.50;91.90;;;;;;5075570;28;20649;-68
2023/09/23 11:18:28;;;;;;;3.75;1.67;;;19.90;92.70;;;;;;5075835;28;20193;-69
2023/09/23 11:20:54;;;;;;;3.35;1.40;;;20.60;91.00;;;;;;5075720;28;20201;-69
2023/09/23 11:23:29;;;;;;;2.58;1.50;;;20.90;91.20;;;;;;5075854;28;20193;-69
2023/09/23 11:25:56;;;;;;;1.73;1.30;;;22.10;90.70;;;;;;5075705;28;20231;-69
2023/09/23 11:28:24;;;;;;;2.55;1.55;;;22.80;83.30;;;;;;5075623;28;20201;-70
2023/09/23 11:30:52;;;;;;;2.15;1.40;;;22.80;82.10;;;;;;5075547;28;20587;-70
2023/09/23 11:33:20;;;;;;;3.38;1.50;;;23.10;83.10;;;;;;5075733;28;20201;-69
2023/09/23 11:35:49;;;;;;;2.63;1.50;;;21.50;84.60;;;;;;5075255;28;20248;-71
2023/09/23 11:38:16;;;;;;;2.58;1.33;;;21.20;86.80;;;;;;5074962;28;20769;-69
2023/09/23 11:40:43;;;;;;;2.45;1.40;;;22.00;83.70;;;;;;5074777;28;20641;-69
2023/09/23 11:43:10;;;;;;;3.67;1.55;;;21.90;83.90;;;;;;5075148;28;20204;-69
2023/09/23 11:45:36;;;;;;;4.05;1.85;;;21.30;84.50;;;;;;5075347;28;20197;-70
2023/09/23 11:48:06;;;;;;;3.25;1.50;;;20.30;87.60;;;;;;5075253;28;20254;-71
2023/09/23 11:50:33;;;;;;;3.75;1.75;;;20.70;86.40;;;;;;5075194;28;20208;-70
2023/09/23 11:53:01;;;;;;;3.05;1.40;;;20.10;87.40;;;;;;5075155;28;20200;-69
2023/09/23 11:55:29;;;;;;;1.92;1.50;;;19.80;89.30;;;;;;5074843;28;20668;-70
2023/09/23 11:57:56;;;;;;;4.55;1.77;;;18.90;86.50;;;;;;5075003;28;20219;-69
2023/09/23 12:00:23;;;;;;;2.03;1.55;;;18.30;90.10;;;;;;5074822;28;20564;-70
2023/09/23 12:02:50;;;;;;;3.78;1.40;;;18.00;90.90;;;;;;5075159;28;20209;-69
2023/09/23 12:05:17;;;;;;;2.05;1.35;;;17.80;90.90;;;;;;5065143;28;20267;-69
2023/09/23 12:07:44;;;;;;;2.30;1.52;;;17.40;90.90;;;;;;5053567;28;20198;-69
2023/09/23 12:10:13;;;;;;;2.47;1.60;;;17.30;91.70;;;;;;5054461;28;20312;-69
2023/09/23 12:12:42;;;;;;;3.63;1.40;;;17.30;90.00;;;;;;5054791;28;20201;-69
2023/09/23 12:15:10;;;;;;;2.92;1.40;;;17.40;90.30;;;;;;5056863;28;20660;-69
2023/09/23 12:17:37;;;;;;;2.65;1.50;;;18.80;89.50;;;;;;5054453;28;20233;-69
2023/09/23 12:20:04;;;;;;;2.28;1.48;;;20.00;87.70;;;;;;5054346;28;20305;-69
2023/09/23 12:22:31;;;;;;;3.53;1.40;;;21.60;84.90;;;;;;5054219;28;20248;-72
2023/09/23 12:24:58;;;;;;;2.40;1.52;;;21.40;83.50;;;;;;5060742;28;20193;-70
2023/09/23 12:27:27;;;;;;;3.17;1.50;;;20.50;84.90;;;;;;5074134;28;20257;-69
2023/09/23 12:29:55;;;;;;;4.22;1.58;;;20.40;85.20;;;;;;5074515;28;20198;-69
2023/09/23 12:32:21;;;;;;;3.33;1.50;;;19.60;86.50;;;;;;5073615;28;20219;-69
2023/09/23 12:34:49;;;;;;;2.83;1.50;;;18.80;87.70;;;;;;5073029;28;20267;-73
2023/09/23 12:37:16;;;;;;;4.50;2.10;;;18.60;89.60;;;;;;5072609;28;20245;-71
2023/09/23 12:39:43;;;;;;;3.13;1.40;;;18.50;90.00;;;;;;5073041;28;20258;-70
2023/09/23 12:42:10;;;;;;;2.80;1.70;;;18.70;88.70;;;;;;5073171;28;20197;-69
2023/09/23 12:44:38;;;;;;;3.63;1.52;;;18.30;90.00;;;;;;5072933;28;20220;-69
2023/09/23 12:47:06;;;;;;;2.63;1.52;;;19.50;89.90;;;;;;5072656;28;20239;-70
2023/09/23 12:49:32;;;;;;;2.38;1.40;;;21.00;83.50;;;;;;5072517;28;20807;-69